Time;durP1;ratioP1;P1;durP2;ratioP2;P2;SDS_P1;SDS_P2;PMS_P1;PMS_P2;Temp;Humidity;BMP_temperature;BMP_pressure;BME280_temperature;BME280_humidity;BME280_pressure;Samples;Min_cycle;Max_cycle;Signal;HPM_P1;HPM_P2
2022/04/25 00:00:30;;;;;;;12.50;10.03;;;;;;;;;;4973974;28;20191;-75
2022/04/25 00:02:55;;;;;;;21.10;15.60;;;;;;;;;;4972860;28;20191;-74
2022/04/25 00:05:20;;;;;;;23.00;18.50;;;;;;;;;;4974109;28;20189;-75
2022/04/25 00:07:46;;;;;;;24.63;19.00;;;;;;;;;;4972989;28;20198;-74
2022/04/25 00:10:11;;;;;;;16.90;14.07;;;;;;;;;;4968447;28;20254;-75
2022/04/25 00:12:36;;;;;;;23.20;17.97;;;;;;;;;;4972976;28;20176;-75
2022/04/25 00:15:02;;;;;;;22.83;18.73;;;;;;;;;;4972941;28;20180;-75
2022/04/25 00:17:27;;;;;;;20.47;17.03;;;;;;;;;;4978567;28;20184;-76
2022/04/25 00:19:52;;;;;;;19.63;17.03;;;;;;;;;;4973342;28;20214;-74
2022/04/25 00:22:17;;;;;;;19.97;14.60;;;;;;;;;;4969851;28;20321;-75
2022/04/25 00:24:44;;;;;;;21.30;17.90;;;;;;;;;;4970481;28;20247;-75
2022/04/25 00:27:09;;;;;;;21.70;18.33;;;;;;;;;;4970584;28;20183;-75
2022/04/25 00:29:35;;;;;;;21.07;17.77;;;;;;;;;;4970991;28;20207;-75
2022/04/25 00:32:00;;;;;;;21.43;18.27;;;;;;;;;;4970909;28;20186;-75
2022/04/25 00:34:25;;;;;;;19.87;16.30;;;;;;;;;;4968702;28;20274;-75
2022/04/25 00:36:50;;;;;;;20.57;17.57;;;;;;;;;;4968930;28;20184;-75
2022/04/25 00:39:15;;;;;;;18.50;15.43;;;;;;;;;;4969158;28;20190;-75
2022/04/25 00:41:41;;;;;;;19.70;16.57;;;;;;;;;;4967443;28;20207;-75
2022/04/25 00:44:06;;;;;;;19.13;15.97;;;;;;;;;;4969807;28;20304;-75
2022/04/25 00:46:31;;;;;;;14.77;12.60;;;;;;;;;;4979877;28;20195;-75
2022/04/25 00:48:57;;;;;;;21.57;17.17;;;;;;;;;;4970678;28;20211;-75
2022/04/25 00:51:22;;;;;;;23.77;18.70;;;;;;;;;;4965191;28;20187;-75
2022/04/25 00:53:47;;;;;;;23.03;20.13;;;;;;;;;;4970350;28;20184;-74
2022/04/25 00:56:14;;;;;;;24.87;20.47;;;;;;;;;;4965842;28;20207;-75
2022/04/25 00:58:39;;;;;;;22.57;17.87;;;;;;;;;;4968979;28;20183;-75
2022/04/25 01:01:04;;;;;;;22.53;18.73;;;;;;;;;;4968922;28;20181;-75
2022/04/25 01:03:30;;;;;;;23.47;18.67;;;;;;;;;;4967953;28;20179;-75
2022/04/25 01:05:55;;;;;;;22.43;18.87;;;;;;;;;;4969806;28;20198;-75
2022/04/25 01:08:20;;;;;;;23.00;18.90;;;;;;;;;;4967544;28;20200;-75
2022/04/25 01:10:46;;;;;;;24.73;19.63;;;;;;;;;;4967356;28;20758;-75
2022/04/25 01:13:14;;;;;;;21.00;17.70;;;;;;;;;;4981232;28;20187;-75
2022/04/25 01:15:39;;;;;;;24.53;20.17;;;;;;;;;;4972390;28;20279;-75
2022/04/25 01:18:04;;;;;;;21.53;17.57;;;;;;;;;;4976150;28;20265;-75
2022/04/25 01:20:30;;;;;;;23.47;20.37;;;;;;;;;;4967400;28;20296;-75
2022/04/25 01:28:32;;;;;;;23.17;17.27;;;;;;;;;;4969090;28;20181;-75
2022/04/25 01:30:57;;;;;;;23.27;18.80;;;;;;;;;;4968608;28;20175;-74
2022/04/25 01:33:22;;;;;;;22.37;17.83;;;;;;;;;;4970296;28;20222;-75
2022/04/25 01:35:48;;;;;;;22.77;17.97;;;;;;;;;;4967948;28;20297;-74
2022/04/25 01:38:13;;;;;;;22.27;19.30;;;;;;;;;;4970349;28;20576;-75
2022/04/25 01:40:38;;;;;;;26.57;19.80;;;;;;;;;;4966848;28;20192;-74
2022/04/25 01:43:03;;;;;;;23.83;18.43;;;;;;;;;;4969088;28;20239;-75
2022/04/25 01:45:28;;;;;;;22.57;18.97;;;;;;;;;;4967445;28;20219;-74
2022/04/25 01:47:54;;;;;;;21.07;17.77;;;;;;;;;;4969681;28;20179;-74
2022/04/25 01:50:19;;;;;;;23.33;17.67;;;;;;;;;;4967842;28;20198;-75
2022/04/25 01:52:45;;;;;;;24.30;19.60;;;;;;;;;;4968981;28;20272;-74
2022/04/25 01:55:10;;;;;;;23.73;19.93;;;;;;;;;;4970382;28;20187;-74
2022/04/25 01:57:35;;;;;;;22.63;18.70;;;;;;;;;;4963557;28;20192;-75
2022/04/25 02:00:00;;;;;;;23.17;19.47;;;;;;;;;;4967562;28;20218;-75
2022/04/25 02:02:26;;;;;;;23.93;18.47;;;;;;;;;;4967541;28;20219;-75
2022/04/25 02:04:51;;;;;;;23.73;18.13;;;;;;;;;;4969269;28;20246;-75
2022/04/25 02:07:16;;;;;;;23.50;17.23;;;;;;;;;;4968486;28;20255;-74
2022/04/25 02:09:41;;;;;;;23.73;18.33;;;;;;;;;;4968407;28;20202;-74
2022/04/25 02:12:07;;;;;;;24.50;18.97;;;;;;;;;;4967711;28;20182;-75
2022/04/25 02:14:32;;;;;;;21.70;17.40;;;;;;;;;;4966162;28;20242;-75
2022/04/25 02:17:01;;;;;;;23.00;18.97;;;;;;;;;;4965703;28;20195;-75
2022/04/25 02:19:26;;;;;;;21.27;17.67;;;;;;;;;;4970297;28;20195;-75
2022/04/25 02:21:52;;;;;;;22.77;17.87;;;;;;;;;;4981460;28;20234;-75
2022/04/25 02:24:17;;;;;;;23.20;17.90;;;;;;;;;;4969268;28;20207;-74
2022/04/25 02:26:42;;;;;;;24.17;18.00;;;;;;;;;;4966933;28;20259;-75
2022/04/25 02:29:08;;;;;;;21.73;17.73;;;;;;;;;;4969449;28;20245;-74
2022/04/25 02:31:33;;;;;;;23.83;18.80;;;;;;;;;;4964475;28;20174;-74
2022/04/25 02:33:58;;;;;;;25.03;17.87;;;;;;;;;;4968162;28;20174;-75
2022/04/25 02:36:24;;;;;;;25.50;18.57;;;;;;;;;;4980252;28;20185;-75
2022/04/25 02:38:49;;;;;;;23.60;17.23;;;;;;;;;;4966834;28;20183;-75
2022/04/25 02:41:15;;;;;;;22.47;17.73;;;;;;;;;;4972543;28;20188;-74
2022/04/25 02:43:42;;;;;;;23.47;18.20;;;;;;;;;;4968604;28;20183;-74
2022/04/25 02:46:08;;;;;;;23.67;17.97;;;;;;;;;;4968685;28;20179;-75
2022/04/25 02:48:37;;;;;;;21.43;16.60;;;;;;;;;;4966833;28;20179;-75
2022/04/25 02:51:03;;;;;;;22.70;17.93;;;;;;;;;;4968555;28;20226;-74
2022/04/25 02:53:29;;;;;;;22.77;17.43;;;;;;;;;;4967679;28;20191;-75
2022/04/25 02:55:54;;;;;;;24.77;18.20;;;;;;;;;;4970541;28;20189;-75
2022/04/25 02:58:20;;;;;;;21.67;17.07;;;;;;;;;;4968388;28;20172;-74
2022/04/25 03:00:46;;;;;;;26.73;19.07;;;;;;;;;;4965672;28;20256;-74
2022/04/25 03:03:11;;;;;;;26.37;19.07;;;;;;;;;;4968793;28;20200;-74
2022/04/25 03:05:37;;;;;;;27.60;19.43;;;;;;;;;;4963143;28;20184;-75
2022/04/25 03:08:02;;;;;;;21.00;15.67;;;;;;;;;;4971155;28;20185;-75
2022/04/25 03:10:27;;;;;;;26.73;20.20;;;;;;;;;;4968445;28;20208;-74
2022/04/25 03:12:52;;;;;;;25.00;19.70;;;;;;;;;;4974132;28;20188;-75
2022/04/25 03:15:18;;;;;;;26.40;21.10;;;;;;;;;;4969673;28;20173;-75
2022/04/25 03:17:44;;;;;;;27.37;19.57;;;;;;;;;;4975808;28;20208;-75
2022/04/25 03:20:10;;;;;;;26.17;19.27;;;;;;;;;;4966740;28;20270;-75
2022/04/25 03:22:35;;;;;;;25.60;20.30;;;;;;;;;;4970751;28;20234;-75
2022/04/25 03:25:00;;;;;;;24.77;19.43;;;;;;;;;;4972158;28;20184;-75
2022/04/25 03:27:25;;;;;;;27.80;19.33;;;;;;;;;;4970025;28;20192;-74
2022/04/25 03:29:50;;;;;;;25.40;19.07;;;;;;;;;;4968433;28;20260;-75
2022/04/25 03:32:15;;;;;;;27.97;20.13;;;;;;;;;;4973265;28;20179;-74
2022/04/25 03:34:42;;;;;;;27.07;19.03;;;;;;;;;;4966337;28;20239;-75
2022/04/25 03:37:07;;;;;;;31.20;19.17;;;;;;;;;;4972073;28;20201;-75
2022/04/25 03:39:32;;;;;;;24.70;19.83;;;;;;;;;;4971324;28;20179;-75
2022/04/25 03:42:00;;;;;;;27.20;20.30;;;;;;;;;;4974270;28;20178;-75
2022/04/25 03:44:25;;;;;;;26.23;19.00;;;;;;;;;;4971855;28;20199;-75
2022/04/25 03:46:50;;;;;;;25.13;17.83;;;;;;;;;;4969840;28;20184;-75
2022/04/25 03:49:16;;;;;;;24.27;18.17;;;;;;;;;;4971435;28;20202;-75
2022/04/25 03:51:41;;;;;;;24.40;18.53;;;;;;;;;;4972120;28;20311;-74
2022/04/25 03:54:07;;;;;;;27.47;20.57;;;;;;;;;;4967328;28;20187;-74
2022/04/25 03:59:16;;;;;;;26.83;19.63;;;;;;;;;;4971757;28;20186;-74
2022/04/25 04:01:42;;;;;;;27.93;20.37;;;;;;;;;;4969044;28;20178;-75
2022/04/25 04:04:07;;;;;;;29.77;22.03;;;;;;;;;;4971273;28;20250;-75
2022/04/25 04:06:32;;;;;;;27.53;20.70;;;;;;;;;;4970546;28;20251;-75
2022/04/25 04:08:58;;;;;;;27.97;20.97;;;;;;;;;;4971755;28;20211;-75
2022/04/25 04:11:23;;;;;;;25.67;18.27;;;;;;;;;;4970089;28;20222;-75
2022/04/25 04:13:48;;;;;;;26.20;19.90;;;;;;;;;;4971028;28;20260;-75
2022/04/25 04:16:14;;;;;;;25.70;19.57;;;;;;;;;;4974167;28;20253;-76
2022/04/25 04:18:41;;;;;;;25.23;18.70;;;;;;;;;;4973850;28;20188;-75
2022/04/25 04:21:07;;;;;;;26.37;17.80;;;;;;;;;;4970009;28;20448;-75
2022/04/25 04:23:32;;;;;;;25.40;17.43;;;;;;;;;;4972277;28;20305;-75
2022/04/25 04:25:57;;;;;;;23.83;17.87;;;;;;;;;;4969964;28;20177;-75
2022/04/25 04:28:22;;;;;;;21.27;16.33;;;;;;;;;;4972188;28;20188;-75
2022/04/25 04:30:48;;;;;;;21.27;15.83;;;;;;;;;;4970585;28;20192;-75
2022/04/25 04:33:13;;;;;;;22.23;18.70;;;;;;;;;;4971196;28;20215;-74
2022/04/25 04:38:22;;;;;;;25.83;18.87;;;;;;;;;;4972195;28;20304;-74
2022/04/25 04:40:47;;;;;;;55.00;50.20;;;;;;;;;;4968262;28;20199;-75
2022/04/25 04:43:12;;;;;;;24.87;19.90;;;;;;;;;;4969201;28;20202;-75
2022/04/25 04:45:38;;;;;;;24.77;18.87;;;;;;;;;;4972052;28;20184;-74
2022/04/25 04:48:03;;;;;;;25.37;17.80;;;;;;;;;;4973072;28;20176;-75
2022/04/25 04:50:29;;;;;;;22.97;19.03;;;;;;;;;;4969379;28;20204;-75
2022/04/25 04:52:58;;;;;;;24.90;19.47;;;;;;;;;;4971408;28;20204;-75
2022/04/25 04:55:24;;;;;;;25.57;17.57;;;;;;;;;;4969618;28;20192;-74
2022/04/25 04:57:50;;;;;;;22.40;17.43;;;;;;;;;;4969692;28;20185;-74
2022/04/25 05:00:16;;;;;;;23.77;17.17;;;;;;;;;;4965345;28;20193;-75
2022/04/25 05:02:41;;;;;;;23.70;17.63;;;;;;;;;;4967806;28;20187;-75
2022/04/25 05:05:07;;;;;;;23.87;17.73;;;;;;;;;;4970965;28;20199;-74
2022/04/25 05:07:32;;;;;;;26.77;18.63;;;;;;;;;;4968255;28;20204;-75
2022/04/25 05:09:57;;;;;;;28.60;19.80;;;;;;;;;;4969479;28;20241;-75
2022/04/25 05:12:23;;;;;;;35.77;32.13;;;;;;;;;;4967807;28;20188;-75
2022/04/25 05:14:48;;;;;;;26.60;18.87;;;;;;;;;;4971732;28;20183;-75
2022/04/25 05:17:13;;;;;;;26.10;19.30;;;;;;;;;;4970929;28;20198;-75
2022/04/25 05:19:38;;;;;;;24.77;17.53;;;;;;;;;;4973973;28;20212;-75
2022/04/25 05:22:04;;;;;;;21.63;17.00;;;;;;;;;;4966731;28;20275;-76
2022/04/25 05:24:29;;;;;;;25.87;18.20;;;;;;;;;;4980241;28;20183;-74
2022/04/25 05:26:54;;;;;;;24.43;17.03;;;;;;;;;;4967451;28;20188;-75
2022/04/25 05:29:19;;;;;;;24.90;17.70;;;;;;;;;;4967369;28;20212;-75
2022/04/25 05:31:44;;;;;;;28.23;19.87;;;;;;;;;;4965919;28;20186;-75
2022/04/25 05:34:10;;;;;;;25.83;18.47;;;;;;;;;;4977633;28;20559;-75
2022/04/25 05:36:35;;;;;;;27.63;20.27;;;;;;;;;;4968942;28;20419;-75
2022/04/25 05:39:00;;;;;;;24.60;18.53;;;;;;;;;;4967946;28;20216;-75
2022/04/25 05:41:25;;;;;;;28.43;21.13;;;;;;;;;;4969020;28;20190;-75
2022/04/25 05:43:51;;;;;;;25.40;18.30;;;;;;;;;;4964997;28;20194;-75
2022/04/25 05:46:16;;;;;;;26.27;20.60;;;;;;;;;;4979862;28;20211;-75
2022/04/25 05:54:12;;;;;;;24.33;18.20;;;;;;;;;;4967286;28;20267;-75
2022/04/25 05:56:37;;;;;;;25.47;18.53;;;;;;;;;;4964033;28;20229;-74
2022/04/25 05:59:02;;;;;;;27.90;20.33;;;;;;;;;;4968848;28;20182;-75
2022/04/25 06:01:28;;;;;;;33.77;24.97;;;;;;;;;;4979448;28;20363;-75
2022/04/25 06:03:53;;;;;;;24.60;18.63;;;;;;;;;;4969608;28;20279;-75
2022/04/25 06:06:21;;;;;;;25.23;19.53;;;;;;;;;;4967001;28;20190;-75
2022/04/25 06:08:46;;;;;;;27.43;19.60;;;;;;;;;;4968207;28;20186;-75
2022/04/25 06:11:11;;;;;;;29.37;20.77;;;;;;;;;;4964718;28;20183;-75
2022/04/25 06:13:36;;;;;;;26.60;18.83;;;;;;;;;;4975141;28;20306;-75
2022/04/25 06:16:01;;;;;;;26.07;21.07;;;;;;;;;;4970586;28;20186;-75
2022/04/25 06:18:27;;;;;;;27.03;21.60;;;;;;;;;;4973703;28;20191;-75
2022/04/25 06:20:52;;;;;;;26.43;21.07;;;;;;;;;;4972384;28;20184;-75
2022/04/25 06:23:18;;;;;;;25.80;19.80;;;;;;;;;;4968099;28;20253;-75
2022/04/25 06:25:45;;;;;;;29.30;22.80;;;;;;;;;;4966969;28;20198;-75
2022/04/25 06:28:11;;;;;;;27.83;20.00;;;;;;;;;;4970777;28;20246;-74
2022/04/25 06:30:36;;;;;;;27.27;20.43;;;;;;;;;;4966372;28;20314;-75
2022/04/25 06:33:01;;;;;;;25.90;20.37;;;;;;;;;;4967559;28;20183;-75
2022/04/25 06:35:27;;;;;;;22.83;16.63;;;;;;;;;;4965295;28;20189;-75
2022/04/25 06:37:52;;;;;;;23.50;17.43;;;;;;;;;;4968005;28;20211;-75
2022/04/25 06:40:18;;;;;;;25.23;18.37;;;;;;;;;;4964770;28;20192;-75
2022/04/25 06:42:44;;;;;;;22.83;17.57;;;;;;;;;;4971868;28;20186;-75
2022/04/25 06:45:09;;;;;;;23.73;19.43;;;;;;;;;;4971948;28;20209;-75
2022/04/25 06:47:34;;;;;;;26.80;23.87;;;;;;;;;;4972064;28;20179;-75
2022/04/25 06:49:59;;;;;;;27.77;21.43;;;;;;;;;;4970788;28;20219;-75
2022/04/25 06:52:24;;;;;;;35.27;30.97;;;;;;;;;;4968731;28;20186;-75
2022/04/25 06:54:50;;;;;;;28.10;22.47;;;;;;;;;;4972365;28;20176;-75
2022/04/25 06:57:15;;;;;;;27.33;22.70;;;;;;;;;;4970888;28;20222;-75
2022/04/25 06:59:42;;;;;;;24.47;18.33;;;;;;;;;;4971133;28;20218;-75
2022/04/25 07:02:07;;;;;;;26.30;19.47;;;;;;;;;;4971929;28;20199;-75
2022/04/25 07:04:32;;;;;;;25.97;21.50;;;;;;;;;;4969655;28;20192;-76
2022/04/25 07:06:57;;;;;;;22.97;17.90;;;;;;;;;;4969992;28;20186;-75
2022/04/25 07:09:23;;;;;;;22.43;17.33;;;;;;;;;;4978557;28;20211;-75
2022/04/25 07:11:48;;;;;;;22.17;17.47;;;;;;;;;;4969123;28;20180;-75
2022/04/25 07:14:14;;;;;;;26.97;20.17;;;;;;;;;;4968818;28;20207;-75
2022/04/25 07:16:40;;;;;;;24.97;19.37;;;;;;;;;;4968759;28;20180;-75
2022/04/25 07:19:06;;;;;;;22.87;17.70;;;;;;;;;;4976601;28;20205;-75
2022/04/25 07:29:47;;;;;;;25.50;17.43;;;;;;;;;;4989984;28;20207;-75
2022/04/25 07:32:17;;;;;;;28.03;22.60;;;;;;;;;;4990153;28;20180;-75
2022/04/25 07:34:48;;;;;;;27.03;21.07;;;;;;;;;;4985832;28;20181;-75
2022/04/25 07:37:15;;;;;;;25.67;18.70;;;;;;;;;;4974625;28;20176;-75
2022/04/25 07:39:40;;;;;;;22.37;16.93;;;;;;;;;;4973918;28;20222;-75
2022/04/25 07:42:05;;;;;;;27.47;21.60;;;;;;;;;;4973433;28;20187;-76
2022/04/25 07:44:31;;;;;;;24.30;18.57;;;;;;;;;;4989632;28;20190;-75
2022/04/25 07:46:56;;;;;;;27.57;20.23;;;;;;;;;;4975213;28;20219;-75
2022/04/25 07:49:21;;;;;;;30.73;20.07;;;;;;;;;;4973932;28;20269;-75
2022/04/25 07:51:48;;;;;;;28.40;21.93;;;;;;;;;;4975001;28;20187;-75
2022/04/25 07:54:14;;;;;;;32.37;24.10;;;;;;;;;;4968459;28;20186;-75
2022/04/25 07:56:40;;;;;;;25.43;20.37;;;;;;;;;;4972109;28;20250;-76
2022/04/25 07:59:05;;;;;;;25.00;19.73;;;;;;;;;;4988550;28;20223;-76
2022/04/25 08:01:31;;;;;;;24.50;20.13;;;;;;;;;;4974276;28;20219;-75
2022/04/25 08:03:57;;;;;;;21.03;16.13;;;;;;;;;;4975106;28;20176;-75
2022/04/25 08:06:22;;;;;;;17.03;14.87;;;;;;;;;;4972113;28;20187;-75
2022/04/25 08:08:51;;;;;;;17.30;14.77;;;;;;;;;;4974459;28;20210;-75
2022/04/25 08:11:16;;;;;;;21.30;16.80;;;;;;;;;;4976409;28;20266;-76
2022/04/25 08:19:10;;;;;;;20.43;16.57;;;;;;;;;;4994602;28;20207;-75
2022/04/25 08:21:37;;;;;;;16.63;13.47;;;;;;;;;;4987435;28;20181;-75
2022/04/25 08:24:02;;;;;;;17.70;14.63;;;;;;;;;;4975101;28;20192;-76
2022/04/25 08:26:28;;;;;;;21.33;17.20;;;;;;;;;;4973932;28;20192;-76
2022/04/25 08:28:54;;;;;;;16.43;13.83;;;;;;;;;;4975454;28;20181;-75
2022/04/25 08:31:20;;;;;;;23.03;19.07;;;;;;;;;;4975462;28;20245;-76
2022/04/25 08:33:46;;;;;;;19.17;16.53;;;;;;;;;;4975104;28;20191;-75
2022/04/25 08:36:12;;;;;;;18.97;15.73;;;;;;;;;;4973793;28;20176;-76
2022/04/25 08:38:39;;;;;;;14.20;12.53;;;;;;;;;;4973348;28;20179;-76
2022/04/25 08:41:06;;;;;;;16.60;14.03;;;;;;;;;;4973673;28;20180;-75
2022/04/25 08:43:31;;;;;;;16.33;14.50;;;;;;;;;;4973925;28;20181;-76
2022/04/25 08:45:57;;;;;;;21.33;19.10;;;;;;;;;;4972264;28;20180;-76
2022/04/25 08:48:24;;;;;;;16.53;14.03;;;;;;;;;;4972406;28;20181;-75
2022/04/25 08:50:50;;;;;;;15.27;13.67;;;;;;;;;;4971504;28;20246;-76
2022/04/25 08:53:16;;;;;;;15.93;14.10;;;;;;;;;;4985373;28;20228;-75
2022/04/25 08:55:42;;;;;;;16.17;12.37;;;;;;;;;;4971325;28;20209;-76
2022/04/25 08:58:07;;;;;;;12.53;11.23;;;;;;;;;;4975315;28;20231;-76
2022/04/25 09:00:33;;;;;;;15.87;12.17;;;;;;;;;;4970492;28;20200;-76
2022/04/25 09:02:59;;;;;;;13.50;12.07;;;;;;;;;;4981253;28;20191;-76
2022/04/25 09:05:25;;;;;;;13.57;11.93;;;;;;;;;;4972206;28;20234;-76
2022/04/25 09:07:50;;;;;;;13.03;11.10;;;;;;;;;;4973425;28;20184;-75
2022/04/25 09:10:16;;;;;;;14.13;11.33;;;;;;;;;;4968067;28;20236;-76
2022/04/25 09:12:45;;;;;;;16.00;14.40;;;;;;;;;;4973513;28;20188;-76
2022/04/25 09:15:10;;;;;;;17.40;14.73;;;;;;;;;;4977535;28;20183;-76
2022/04/25 09:17:38;;;;;;;15.70;13.43;;;;;;;;;;4976217;28;20181;-75
2022/04/25 09:20:04;;;;;;;15.73;13.23;;;;;;;;;;4972951;28;20198;-76
2022/04/25 09:22:31;;;;;;;14.53;12.50;;;;;;;;;;4978593;28;20228;-75
2022/04/25 09:25:02;;;;;;;15.00;13.53;;;;;;;;;;4971564;28;20180;-75
2022/04/25 09:27:28;;;;;;;13.43;12.07;;;;;;;;;;4970785;28;20184;-76
2022/04/25 09:29:53;;;;;;;15.97;14.27;;;;;;;;;;4967255;28;20205;-76
2022/04/25 09:32:30;;;;;;;14.83;13.30;;;;;;;;;;4980842;28;20180;-76
2022/04/25 09:35:03;;;;;;;13.97;12.43;;;;;;;;;;4965828;28;20192;-76
2022/04/25 09:37:42;;;;;;;15.53;13.00;;;;;;;;;;4986973;28;20263;-76
2022/04/25 09:40:08;;;;;;;20.30;15.10;;;;;;;;;;4973130;28;20184;-76
2022/04/25 09:42:33;;;;;;;15.00;13.13;;;;;;;;;;4962207;28;20242;-76
2022/04/25 09:44:59;;;;;;;21.27;16.00;;;;;;;;;;4975189;28;20176;-76
2022/04/25 09:47:32;;;;;;;23.83;17.20;;;;;;;;;;4970255;28;20277;-76
2022/04/25 09:50:01;;;;;;;36.40;21.33;;;;;;;;;;4984224;28;20192;-76
2022/04/25 09:52:27;;;;;;;17.27;14.37;;;;;;;;;;4970679;28;20204;-76
2022/04/25 09:54:52;;;;;;;14.80;13.23;;;;;;;;;;4967539;28;20344;-76
2022/04/25 09:57:31;;;;;;;38.80;25.20;;;;;;;;;;4964624;28;20180;-76
2022/04/25 09:59:56;;;;;;;11.70;10.50;;;;;;;;;;4964493;28;20202;-75
2022/04/25 10:02:22;;;;;;;24.00;16.50;;;;;;;;;;4971082;28;20183;-76
2022/04/25 10:04:47;;;;;;;18.60;14.47;;;;;;;;;;4990426;28;20180;-77
2022/04/25 10:07:12;;;;;;;13.10;11.30;;;;;;;;;;4972363;28;20192;-75
2022/04/25 10:09:38;;;;;;;13.90;11.87;;;;;;;;;;4970827;28;20823;-75
2022/04/25 10:12:05;;;;;;;12.83;11.53;;;;;;;;;;4973351;28;20172;-76
2022/04/25 10:14:30;;;;;;;10.70;9.60;;;;;;;;;;4970349;28;20180;-76
2022/04/25 10:16:58;;;;;;;11.10;9.97;;;;;;;;;;4980950;28;20260;-76
2022/04/25 10:19:25;;;;;;;10.40;9.47;;;;;;;;;;4990646;28;20458;-75
2022/04/25 10:21:53;;;;;;;12.13;9.50;;;;;;;;;;4991523;28;20307;-75
2022/04/25 10:24:19;;;;;;;10.20;8.97;;;;;;;;;;4972836;28;20188;-76
2022/04/25 10:26:46;;;;;;;10.00;9.00;;;;;;;;;;4990109;28;20176;-76
2022/04/25 10:29:13;;;;;;;9.27;8.43;;;;;;;;;;4992750;28;20208;-75
2022/04/25 10:31:41;;;;;;;9.77;8.23;;;;;;;;;;4973992;28;20211;-76
2022/04/25 10:34:06;;;;;;;9.60;8.60;;;;;;;;;;4974716;28;20196;-75
2022/04/25 10:36:38;;;;;;;9.60;8.37;;;;;;;;;;4976655;28;20164;-76
2022/04/25 10:39:19;;;;;;;10.10;9.10;;;;;;;;;;4986011;28;20279;-75
2022/04/25 10:44:29;;;;;;;9.67;8.67;;;;;;;;;;4994271;28;20266;-76
2022/04/25 10:47:03;;;;;;;9.43;8.52;;;;;;;;;;4978573;28;20267;-76
2022/04/25 10:49:36;;;;;;;8.63;7.83;;;;;;;;;;4988951;28;20212;-75
2022/04/25 10:52:02;;;;;;;12.23;9.73;;;;;;;;;;4991176;28;20240;-75
2022/04/25 10:54:45;;;;;;;9.40;8.50;;;;;;;;;;4975928;28;20268;-75
2022/04/25 10:57:11;;;;;;;8.93;7.90;;;;;;;;;;4982968;28;20176;-76
2022/04/25 10:59:37;;;;;;;14.90;12.07;;;;;;;;;;4974208;28;20191;-75
2022/04/25 11:02:19;;;;;;;9.27;8.37;;;;;;;;;;4975123;28;20176;-75
2022/04/25 11:04:45;;;;;;;8.43;7.63;;;;;;;;;;4971459;28;20183;-76
2022/04/25 11:07:21;;;;;;;9.30;8.40;;;;;;;;;;4992257;28;20172;-76
2022/04/25 11:09:46;;;;;;;7.33;6.63;;;;;;;;;;4974851;28;20278;-76
2022/04/25 11:12:11;;;;;;;7.87;7.17;;;;;;;;;;4973196;28;20255;-76
2022/04/25 11:14:36;;;;;;;7.57;6.87;;;;;;;;;;4969021;28;20180;-76
2022/04/25 11:17:10;;;;;;;7.27;6.57;;;;;;;;;;4986368;28;20176;-76
2022/04/25 11:19:51;;;;;;;7.43;6.83;;;;;;;;;;4986895;28;20212;-75
2022/04/25 11:22:29;;;;;;;7.50;6.40;;;;;;;;;;4970688;28;20311;-75
2022/04/25 11:24:54;;;;;;;7.03;6.33;;;;;;;;;;4969727;28;20185;-75
2022/04/25 11:27:21;;;;;;;6.60;5.90;;;;;;;;;;4968820;28;20172;-75
2022/04/25 11:30:06;;;;;;;6.93;6.33;;;;;;;;;;4970941;28;20212;-76
2022/04/25 11:32:40;;;;;;;6.03;5.50;;;;;;;;;;4971311;28;20184;-76
2022/04/25 11:35:05;;;;;;;6.57;6.03;;;;;;;;;;4969971;28;20239;-76
2022/04/25 11:37:31;;;;;;;6.27;5.73;;;;;;;;;;4968484;28;20185;-76
2022/04/25 11:40:06;;;;;;;6.03;5.43;;;;;;;;;;4968573;28;20242;-75
2022/04/25 11:42:32;;;;;;;6.37;5.77;;;;;;;;;;4970094;28;20200;-76
2022/04/25 11:44:58;;;;;;;5.50;5.00;;;;;;;;;;4971846;28;20181;-76
2022/04/25 11:47:23;;;;;;;5.33;4.83;;;;;;;;;;4970023;28;20183;-76
2022/04/25 11:50:15;;;;;;;5.30;4.80;;;;;;;;;;4969969;28;20550;-76
2022/04/25 11:52:47;;;;;;;4.60;4.20;;;;;;;;;;4967665;28;20187;-76
2022/04/25 11:55:13;;;;;;;4.23;3.83;;;;;;;;;;4967753;28;20173;-76
2022/04/25 11:57:39;;;;;;;4.47;4.17;;;;;;;;;;4970150;28;20183;-76
2022/04/25 12:00:31;;;;;;;3.90;3.60;;;;;;;;;;4966685;28;20179;-76
2022/04/25 12:02:56;;;;;;;4.93;4.43;;;;;;;;;;4964994;28;20239;-76
2022/04/25 12:05:26;;;;;;;4.03;3.63;;;;;;;;;;4969256;28;20244;-76
2022/04/25 12:16:04;;;;;;;3.57;3.27;;;;;;;;;;4975625;28;20193;-76
2022/04/25 12:18:30;;;;;;;3.80;3.50;;;;;;;;;;4973010;28;20315;-76
2022/04/25 12:21:06;;;;;;;3.67;3.20;;;;;;;;;;4969256;28;20354;-76
2022/04/25 12:23:36;;;;;;;3.77;3.47;;;;;;;;;;4971350;28;20270;-76
2022/04/25 12:26:03;;;;;;;3.63;3.33;;;;;;;;;;4969576;28;20192;-76
2022/04/25 12:28:29;;;;;;;3.67;3.37;;;;;;;;;;4971538;28;20478;-77
2022/04/25 12:30:56;;;;;;;3.67;3.37;;;;;;;;;;4970637;28;20238;-76
2022/04/25 12:33:32;;;;;;;3.53;3.23;;;;;;;;;;4967321;28;20186;-77
2022/04/25 12:36:16;;;;;;;3.30;3.00;;;;;;;;;;4970522;28;20175;-77
2022/04/25 12:38:41;;;;;;;3.20;2.90;;;;;;;;;;4970095;28;20184;-76
2022/04/25 12:41:06;;;;;;;3.37;3.07;;;;;;;;;;4966820;28;20195;-76
2022/04/25 12:43:36;;;;;;;3.00;2.80;;;;;;;;;;4970046;28;20200;-76
2022/04/25 12:46:01;;;;;;;3.30;3.03;;;;;;;;;;4970826;28;20196;-76
2022/04/25 12:48:26;;;;;;;7.20;3.60;;;;;;;;;;4967019;28;20193;-76
2022/04/25 12:50:52;;;;;;;3.30;3.10;;;;;;;;;;4966352;28;20224;-76
2022/04/25 12:53:36;;;;;;;4.43;3.50;;;;;;;;;;4971997;28;20176;-76
2022/04/25 12:56:01;;;;;;;3.80;2.97;;;;;;;;;;4963713;28;20375;-77
2022/04/25 12:58:32;;;;;;;3.27;2.97;;;;;;;;;;4964796;28;20515;-76
2022/04/25 13:00:58;;;;;;;4.97;3.10;;;;;;;;;;4968143;28;20189;-76
2022/04/25 13:03:24;;;;;;;3.50;3.20;;;;;;;;;;4969765;28;20272;-76
2022/04/25 13:05:49;;;;;;;3.30;3.10;;;;;;;;;;4964875;28;20185;-76
2022/04/25 13:08:15;;;;;;;3.00;2.80;;;;;;;;;;4967976;28;20188;-76
2022/04/25 13:10:40;;;;;;;4.22;3.83;;;;;;;;;;4966772;28;20197;-77
2022/04/25 13:13:05;;;;;;;6.40;4.13;;;;;;;;;;4969072;28;20181;-77
2022/04/25 13:15:30;;;;;;;4.23;3.83;;;;;;;;;;4963143;28;20215;-76
2022/04/25 13:17:56;;;;;;;3.63;3.30;;;;;;;;;;4970745;28;20199;-76
2022/04/25 13:20:21;;;;;;;3.57;3.27;;;;;;;;;;4968205;28;20223;-77
2022/04/25 13:22:47;;;;;;;3.70;3.10;;;;;;;;;;4969247;28;20245;-76
2022/04/25 13:25:14;;;;;;;3.80;3.50;;;;;;;;;;4981879;28;20326;-77
2022/04/25 13:27:40;;;;;;;2.93;2.73;;;;;;;;;;4966671;28;20190;-76
2022/04/25 13:30:07;;;;;;;3.60;3.30;;;;;;;;;;4968177;28;20265;-77
2022/04/25 13:32:35;;;;;;;4.03;3.50;;;;;;;;;;4963188;28;20272;-76
2022/04/25 13:35:01;;;;;;;3.57;3.27;;;;;;;;;;4970333;28;20272;-77
2022/04/25 13:37:29;;;;;;;3.83;3.43;;;;;;;;;;4968632;28;20274;-77
2022/04/25 13:39:55;;;;;;;3.67;3.37;;;;;;;;;;4965516;28;20279;-77
2022/04/25 13:42:20;;;;;;;3.60;3.30;;;;;;;;;;4965792;28;20187;-77
2022/04/25 13:44:45;;;;;;;4.27;3.23;;;;;;;;;;4964846;28;20229;-76
2022/04/25 13:47:10;;;;;;;3.80;3.40;;;;;;;;;;4965244;28;20181;-76
2022/04/25 13:49:36;;;;;;;3.57;3.00;;;;;;;;;;4968302;28;20207;-77
2022/04/25 13:52:01;;;;;;;4.33;3.93;;;;;;;;;;4968837;28;20206;-76
2022/04/25 13:54:26;;;;;;;4.67;3.80;;;;;;;;;;4970498;28;20242;-77
2022/04/25 13:56:51;;;;;;;4.77;3.53;;;;;;;;;;4964885;28;20184;-77
2022/04/25 13:59:17;;;;;;;4.93;3.30;;;;;;;;;;4968236;28;20248;-76
2022/04/25 14:01:42;;;;;;;4.13;3.83;;;;;;;;;;4967719;28;20193;-76
2022/04/25 14:04:07;;;;;;;7.10;6.37;;;;;;;;;;4966870;28;20184;-76
2022/04/25 14:06:32;;;;;;;5.53;5.03;;;;;;;;;;4967424;28;20252;-76
2022/04/25 14:08:58;;;;;;;6.93;6.27;;;;;;;;;;4968843;28;20187;-76
2022/04/25 14:11:24;;;;;;;5.30;4.77;;;;;;;;;;4964889;28;20205;-77
2022/04/25 14:13:49;;;;;;;3.77;3.37;;;;;;;;;;4966185;28;20218;-77
2022/04/25 14:16:14;;;;;;;3.60;3.23;;;;;;;;;;4969503;28;20206;-77
2022/04/25 14:18:40;;;;;;;3.90;3.60;;;;;;;;;;4974145;28;20185;-76
2022/04/25 14:21:06;;;;;;;4.20;3.83;;;;;;;;;;4968856;28;20276;-76
2022/04/25 14:23:32;;;;;;;4.07;3.67;;;;;;;;;;4968868;28;20264;-76
2022/04/25 14:25:57;;;;;;;4.57;4.17;;;;;;;;;;4966379;28;20191;-77
2022/04/25 14:28:22;;;;;;;6.10;4.10;;;;;;;;;;4966530;28;20189;-76
2022/04/25 14:30:47;;;;;;;5.07;4.67;;;;;;;;;;4962887;28;20205;-76
2022/04/25 14:33:13;;;;;;;4.67;4.30;;;;;;;;;;4968313;28;20213;-76
2022/04/25 14:35:41;;;;;;;4.40;4.00;;;;;;;;;;4966987;28;20241;-76
2022/04/25 14:38:06;;;;;;;12.10;9.67;;;;;;;;;;4967283;28;20181;-77
2022/04/25 14:40:31;;;;;;;4.10;3.80;;;;;;;;;;4962620;28;20235;-76
2022/04/25 14:42:56;;;;;;;3.70;3.40;;;;;;;;;;4969945;28;20218;-76
2022/04/25 14:45:23;;;;;;;4.47;4.07;;;;;;;;;;4969810;28;20197;-77
2022/04/25 14:47:48;;;;;;;6.43;5.83;;;;;;;;;;4967546;28;20189;-76
2022/04/25 14:55:42;;;;;;;8.93;8.13;;;;;;;;;;4971614;28;20201;-76
2022/04/25 14:58:08;;;;;;;9.33;8.43;;;;;;;;;;4968507;28;20175;-76
2022/04/25 15:00:33;;;;;;;8.83;8.03;;;;;;;;;;4966701;28;20276;-77
2022/04/25 15:02:59;;;;;;;9.40;8.50;;;;;;;;;;4970885;28;20251;-76
2022/04/25 15:05:24;;;;;;;12.43;9.83;;;;;;;;;;4969924;28;20186;-77